Time;durP1;ratioP1;P1;durP2;ratioP2;P2;SDS_P1;SDS_P2;PMS_P1;PMS_P2;Temp;Humidity;BMP_temperature;BMP_pressure;BME280_temperature;BME280_humidity;BME280_pressure;Samples;Min_cycle;Max_cycle;Signal;HPM_P1;HPM_P2
2021/07/07 00:00:29;;;;;;;5.25;1.80;;;;;;;15.38;67.39;101181.94;5018604;28;20499;-82
2021/07/07 00:03:44;;;;;;;7.22;1.70;;;;;;;15.28;67.82;101197.84;5033582;28;20077;-84
2021/07/07 00:07:19;;;;;;;10.68;2.30;;;;;;;15.10;68.91;101206.63;5026089;28;20124;-84
2021/07/07 00:13:26;;;;;;;10.52;2.65;;;;;;;14.92;69.57;101193.28;5039168;28;20041;-81
2021/07/07 00:16:53;;;;;;;6.22;2.17;;;;;;;14.90;69.79;101187.13;5028298;28;20037;-83
2021/07/07 00:19:43;;;;;;;10.95;2.42;;;;;;;14.81;70.31;101183.53;5040467;28;20139;-83
2021/07/07 00:22:55;;;;;;;4.60;1.98;;;;;;;14.76;70.64;101187.03;5027985;28;20076;-84
2021/07/07 00:25:47;;;;;;;8.75;1.83;;;;;;;14.69;70.97;101196.72;5036602;28;20061;-83
2021/07/07 00:29:04;;;;;;;9.13;1.80;;;;;;;14.64;70.98;101193.16;5034624;28;20037;-84
2021/07/07 00:32:20;;;;;;;6.10;2.40;;;;;;;14.59;71.23;101189.56;5025555;28;20038;-84
2021/07/07 00:35:20;;;;;;;10.48;2.17;;;;;;;14.52;71.70;101190.41;5041973;28;20064;-84
2021/07/07 00:38:23;;;;;;;7.13;2.22;;;;;;;14.53;71.48;101192.16;5035728;28;20029;-84
2021/07/07 00:41:50;;;;;;;7.78;2.08;;;;;;;14.50;72.01;101190.38;5035701;28;20038;-83
2021/07/07 00:45:02;;;;;;;6.97;1.88;;;;;;;14.50;72.56;101195.69;5031826;28;20049;-83
2021/07/07 00:47:41;;;;;;;6.28;1.88;;;;;;;14.48;72.57;101198.31;5009096;28;20051;-83
2021/07/07 00:50:41;;;;;;;9.65;2.40;;;;;;;14.49;72.53;101196.59;5018145;28;20036;-83
2021/07/07 00:53:56;;;;;;;7.32;1.90;;;;;;;14.45;72.96;101198.31;5011594;28;20108;-84
2021/07/07 00:56:34;;;;;;;8.25;1.85;;;;;;;14.40;73.04;101200.03;5038025;28;20104;-84
2021/07/07 00:59:35;;;;;;;8.15;2.13;;;;;;;14.37;73.85;101194.75;5026771;28;20469;-86
2021/07/07 01:02:23;;;;;;;9.90;2.10;;;;;;;14.37;73.48;101194.75;5022156;28;20411;-85
2021/07/07 01:05:30;;;;;;;4.53;2.03;;;;;;;14.37;73.58;101192.09;5007688;28;20038;-84
2021/07/07 01:08:08;;;;;;;7.85;2.00;;;;;;;14.34;74.05;101189.44;5024394;28;20057;-84
2021/07/07 01:11:24;;;;;;;5.53;1.83;;;;;;;14.32;73.93;101186.78;5017146;28;20049;-84
2021/07/07 01:13:59;;;;;;;6.10;1.83;;;;;;;14.36;73.97;101190.31;5031623;28;20111;-85
2021/07/07 01:16:59;;;;;;;8.82;2.15;;;;;;;14.36;74.13;101187.66;5032912;28;20034;-84
2021/07/07 01:20:00;;;;;;;13.48;2.53;;;;;;;14.39;74.07;101197.38;5013565;28;20060;-83
2021/07/07 01:23:03;;;;;;;6.15;2.15;;;;;;;14.46;73.63;101186.84;5029851;28;20068;-83
2021/07/07 01:26:03;;;;;;;8.20;2.42;;;;;;;14.49;74.19;101180.69;5031152;28;20053;-84
2021/07/07 01:28:46;;;;;;;9.68;2.10;;;;;;;14.50;74.01;101178.06;5010400;28;20065;-84
2021/07/07 01:31:17;;;;;;;7.03;2.13;;;;;;;14.55;74.45;101174.53;5030662;28;20041;-84
2021/07/07 01:33:47;;;;;;;12.65;2.80;;;;;;;14.58;74.46;101167.50;5033029;28;20092;-82
2021/07/07 01:36:39;;;;;;;8.00;2.40;;;;;;;14.62;73.79;101168.38;5032037;28;20028;-84
2021/07/07 01:39:28;;;;;;;11.25;2.72;;;;;;;14.63;73.94;101159.59;5028984;28;20045;-84
2021/07/07 01:42:42;;;;;;;7.30;2.47;;;;;;;14.63;74.29;101168.44;5030713;28;20080;-83
2021/07/07 01:45:36;;;;;;;6.32;2.20;;;;;;;14.66;73.79;101175.50;5030880;28;20047;-83
2021/07/07 01:48:09;;;;;;;9.90;2.50;;;;;;;14.67;73.57;101172.00;5025896;28;20025;-85
2021/07/07 01:51:18;;;;;;;;;;;;;;;;;;;;;
2021/07/07 01:54:22;;;;;;;6.70;2.20;;;;;;;14.65;74.10;101164.03;5029272;28;20037;-83
2021/07/07 01:56:56;;;;;;;11.57;2.63;;;;;;;14.68;73.65;101173.75;5016538;28;20078;-83
2021/07/07 01:59:29;;;;;;;7.03;2.22;;;;;;;14.69;74.14;101177.28;5012619;28;20514;-83
2021/07/07 02:02:11;;;;;;;11.32;2.22;;;;;;;14.71;73.38;101176.41;5013612;28;20049;-82
2021/07/07 02:04:44;;;;;;;8.20;2.63;;;;;;;14.73;72.97;101177.31;5011619;28;20136;-83
2021/07/07 02:08:12;;;;;;;;;;;;;;;;;;;;;
2021/07/07 02:11:03;;;;;;;12.02;3.05;;;;;;;14.78;72.65;101180.84;5047776;28;20033;-83
2021/07/07 02:14:07;;;;;;;11.85;2.30;;;;;;;14.78;73.06;101183.50;5049022;28;20047;-83
2021/07/07 02:20:20;;;;;;;4.80;2.10;;;;;;;14.77;73.54;101183.50;5049935;28;20370;-82
2021/07/07 02:23:45;;;;;;;7.35;2.00;;;;;;;14.76;73.08;101190.56;5041685;28;20057;-83
2021/07/07 02:26:46;;;;;;;;;;;;;;;;;;;;;
2021/07/07 02:29:47;;;;;;;8.90;2.30;;;;;;;14.82;72.96;101187.06;5050657;28;20037;-85
2021/07/07 02:32:53;;;;;;;6.80;3.17;;;;;;;14.84;72.85;101190.63;5050286;28;20058;-84
2021/07/07 02:36:21;;;;;;;;;;;;;;;;;;;;;
2021/07/07 02:39:28;;;;;;;;;;;;;;;;;;;;;
2021/07/07 02:42:52;;;;;;;10.25;2.05;;;;;;;14.91;73.21;101196.84;5026102;28;20414;-81
2021/07/07 02:46:14;;;;;;;6.13;2.22;;;;;;;14.91;74.05;101196.84;5049349;28;20498;-84
2021/07/07 02:49:45;;;;;;;7.97;2.47;;;;;;;14.88;73.71;101196.81;5041874;28;20041;-84
2021/07/07 02:53:01;;;;;;;6.00;2.45;;;;;;;14.87;74.37;101195.03;4989292;28;20124;-83
2021/07/07 02:56:13;;;;;;;7.38;2.50;;;;;;;14.84;74.17;101196.78;5048493;28;20040;-82
2021/07/07 02:59:30;;;;;;;10.27;2.42;;;;;;;14.79;74.68;101195.00;5046938;28;20045;-85
2021/07/07 03:02:06;;;;;;;6.50;2.58;;;;;;;14.74;74.94;101194.97;5036046;28;20055;-83
2021/07/07 03:05:12;;;;;;;3.22;2.10;;;;;;;14.72;75.14;101202.03;5030714;28;20118;-84
2021/07/07 03:08:06;;;;;;;7.13;2.30;;;;;;;14.67;76.09;101201.13;5040080;28;20057;-84
2021/07/07 03:11:14;;;;;;;7.68;2.50;;;;;;;14.64;75.91;101203.75;5050220;28;20063;-83
2021/07/07 03:14:13;;;;;;;7.55;1.90;;;;;;;14.65;75.40;101205.53;5034375;28;20469;-83
2021/07/07 03:17:03;;;;;;;6.90;1.88;;;;;;;14.65;76.04;101205.53;5049101;28;20033;-84
2021/07/07 03:20:20;;;;;;;6.50;2.60;;;;;;;14.59;76.16;101206.34;5031320;28;20036;-84
2021/07/07 03:23:26;;;;;;;6.20;2.00;;;;;;;14.54;76.63;101200.16;5050595;28;20033;-84
2021/07/07 03:26:06;;;;;;;5.90;2.30;;;;;;;14.47;77.06;101204.53;5033228;28;20045;-84
2021/07/07 03:28:46;;;;;;;6.38;2.10;;;;;;;14.41;77.36;101201.81;5050646;28;20026;-83
2021/07/07 03:34:55;;;;;;;9.10;2.13;;;;;;;14.36;77.97;101207.97;5054186;28;20045;-84
2021/07/07 03:38:07;;;;;;;4.82;2.10;;;;;;;14.33;78.35;101212.34;5048853;28;20032;-84
2021/07/07 03:41:05;;;;;;;9.30;2.75;;;;;;;14.34;78.16;101211.47;5053317;28;20045;-83
2021/07/07 03:50:50;;;;;;;5.95;2.50;;;;;;;14.25;78.85;101229.94;5049663;28;20032;-85
2021/07/07 03:54:23;;;;;;;5.03;2.28;;;;;;;14.18;79.27;101230.78;5052685;28;20037;-84
2021/07/07 03:57:00;;;;;;;3.30;2.05;;;;;;;14.16;79.70;101233.41;5052548;28;20029;-83
2021/07/07 04:00:04;;;;;;;;;;;;;;;;;;;;;
2021/07/07 04:02:45;;;;;;;;;;;;;;;14.15;80.21;101236.94;4978772;28;20061;-82
2021/07/07 04:05:41;;;;;;;6.75;2.35;;;;;;;14.18;80.09;101232.56;5043546;28;19926;-84
2021/07/07 04:09:01;;;;;;;7.30;2.72;;;;;;;14.21;80.23;101237.84;5048275;28;20041;-84
2021/07/07 04:11:59;;;;;;;;;;;;;;;;;;;;;
2021/07/07 04:14:51;;;;;;;7.18;2.72;;;;;;;14.24;80.15;101230.81;5046728;28;20045;-83
2021/07/07 04:17:50;;;;;;;10.80;2.65;;;;;;;14.26;80.40;101238.78;5044188;28;20108;-85
2021/07/07 04:20:22;;;;;;;10.40;2.13;;;;;;;14.32;80.31;101238.81;5053195;28;21210;-81
2021/07/07 04:23:28;;;;;;;8.77;2.75;;;;;;;14.37;80.80;101244.16;5050549;28;20144;-85
2021/07/07 04:26:20;;;;;;;9.02;2.58;;;;;;;14.43;80.63;101252.13;5051544;28;20098;-83
2021/07/07 04:29:36;;;;;;;;;;;;;;;;;;;;;
2021/07/07 04:32:18;;;;;;;9.02;2.20;;;;;;;14.66;79.79;101244.38;5052618;28;20463;-83
2021/07/07 04:35:24;;;;;;;5.90;2.50;;;;;;;14.80;79.15;101241.81;5037045;28;20095;-84
2021/07/07 04:38:28;;;;;;;3.60;1.90;;;;;;;15.02;78.42;101242.81;5052339;28;20052;-86
2021/07/07 04:41:21;;;;;;;2.75;1.80;;;;;;;15.24;77.77;101242.91;5053410;28;20116;-84
2021/07/07 04:44:11;;;;;;;7.15;2.70;;;;;;;15.39;77.42;101242.94;5053048;28;20224;-84
2021/07/07 04:47:05;;;;;;;13.27;2.25;;;;;;;15.57;76.23;101249.19;5003455;28;20111;-84
2021/07/07 04:49:57;;;;;;;4.28;2.05;;;;;;;15.74;75.33;101242.16;5052569;28;20056;-84
2021/07/07 04:53:14;;;;;;;6.78;2.30;;;;;;;15.89;74.93;101248.41;5036951;28;20036;-84
2021/07/07 04:56:36;;;;;;;;;;;;;;;;;;;;;
2021/07/07 04:59:58;;;;;;;10.25;2.70;;;;;;;15.91;74.97;101254.56;5047050;28;20498;-83
2021/07/07 05:02:51;;;;;;;7.10;2.30;;;;;;;15.98;74.58;101251.94;5048251;28;20075;-84
2021/07/07 05:05:54;;;;;;;4.90;1.85;;;;;;;16.04;74.14;101253.72;5051084;28;20025;-83
2021/07/07 05:09:11;;;;;;;5.75;2.15;;;;;;;16.04;74.64;101253.72;5040684;28;20072;-85
2021/07/07 05:12:15;;;;;;;7.43;2.72;;;;;;;16.07;74.71;101260.78;5027474;28;20040;-81
2021/07/07 05:15:28;;;;;;;7.27;2.13;;;;;;;16.07;74.85;101263.44;5028247;28;20045;-84
2021/07/07 05:25:14;;;;;;;5.78;2.33;;;;;;;15.90;75.66;101271.38;5026998;28;20041;-84
2021/07/07 05:28:17;;;;;;;4.80;2.33;;;;;;;15.82;75.89;101274.03;5023829;28;20045;-82
2021/07/07 05:31:39;;;;;;;10.37;2.57;;;;;;;15.70;76.09;101268.69;5008490;28;20029;-82
2021/07/07 05:34:35;;;;;;;6.95;2.85;;;;;;;15.62;76.45;101268.66;5026891;28;20496;-84
2021/07/07 05:37:51;;;;;;;6.28;2.70;;;;;;;15.62;77.13;101271.31;5028020;28;20025;-84
2021/07/07 05:40:41;;;;;;;7.00;2.42;;;;;;;16.02;76.07;101263.47;5027731;28;20131;-83
2021/07/07 05:43:46;;;;;;;;;;;;;;;;;;;;;
2021/07/07 05:46:22;;;;;;;9.70;2.53;;;;;;;17.33;70.60;101272.97;5029890;28;20045;-82
2021/07/07 05:48:53;;;;;;;9.20;2.08;;;;;;;17.85;69.68;101275.34;5022737;28;20026;-82
2021/07/07 05:51:26;;;;;;;6.35;2.22;;;;;;;18.27;67.06;101279.50;5014592;28;20036;-81
2021/07/07 05:53:52;;;;;;;;;;;;;;;18.70;66.14;101279.09;5014273;28;20033;-81
2021/07/07 05:56:37;;;;;;;4.18;2.15;;;;;;;18.83;65.02;101280.75;5031710;28;20342;-83
2021/07/07 05:59:03;;;;;;;4.82;1.95;;;;;;;19.23;64.16;101278.56;5008930;28;20046;-80
2021/07/07 06:06:09;;;;;;;11.00;1.73;;;;;;;19.72;61.40;101285.88;4959118;28;20043;-85
2021/07/07 06:08:37;;;;;;;4.97;1.77;;;;;;;20.06;60.60;101288.09;4925133;28;20093;-85
2021/07/07 06:11:27;;;;;;;4.15;2.60;;;;;;;20.49;58.90;101284.69;4938093;29;20494;-82
2021/07/07 06:14:00;;;;;;;6.82;2.05;;;;;;;20.56;58.37;101288.16;4933242;29;20106;-84
2021/07/07 06:17:19;;;;;;;;;;;;;;;;;;;;;
2021/07/07 06:20:46;;;;;;;6.65;2.28;;;;;;;20.83;58.53;101297.47;4883500;29;20084;-85
2021/07/07 06:24:23;;;;;;;;;;;;;;;;;;;;;
2021/07/07 06:28:10;;;;;;;;;;;;;;;;;;;;;
2021/07/07 06:38:09;;;;;;;6.20;1.83;;;;;;;21.91;54.51;101305.09;4838479;29;20046;-82
2021/07/07 06:44:20;;;;;;;5.45;2.00;;;;;;;21.34;56.76;101320.56;4835034;29;20076;-83
2021/07/07 07:01:16;;;;;;;4.45;1.40;;;;;;;20.35;59.41;101326.84;4859341;29;20404;-84
2021/07/07 07:08:12;;;;;;;;;;;;;;;;;;;;;
2021/07/07 07:28:14;;;;;;;6.07;1.85;;;;;;;18.58;65.35;101370.72;4875547;29;20036;-85
2021/07/07 07:31:04;;;;;;;4.93;2.22;;;;;;;18.37;65.90;101369.13;4909014;29;20048;-81
2021/07/07 07:33:30;;;;;;;5.30;1.90;;;;;;;18.41;66.13;101373.53;4932494;28;20036;-82
2021/07/07 07:36:02;;;;;;;6.35;2.03;;;;;;;18.40;67.13;101371.75;4965569;28;20066;-82
2021/07/07 07:38:57;;;;;;;6.43;2.10;;;;;;;18.51;66.08;101380.53;4961835;28;20522;-84
2021/07/07 07:41:30;;;;;;;6.47;2.33;;;;;;;18.50;66.96;101381.47;4999118;28;20082;-80
2021/07/07 07:43:56;;;;;;;8.60;2.60;;;;;;;18.41;67.75;101378.88;5054200;28;20033;-81
2021/07/07 09:36:25;;;;;;;3.45;1.60;;;;;;;21.79;53.19;101488.41;4946233;28;20066;-75
2021/07/07 09:38:52;;;;;;;5.30;2.38;;;;;;;22.01;52.07;101483.47;4949579;29;20035;-75
2021/07/07 11:04:41;;;;;;;4.55;1.77;;;;;;;23.18;54.25;101564.97;4958153;28;21026;-82
2021/07/07 11:07:44;;;;;;;4.13;1.83;;;;;;;24.05;50.24;101556.44;5022345;28;20568;-83
2021/07/07 11:10:53;;;;;;;7.18;1.75;;;;;;;24.40;47.85;101570.69;5028824;28;20029;-84
2021/07/07 11:13:22;;;;;;;4.75;1.70;;;;;;;24.61;49.32;101567.34;5010082;28;20042;-85
2021/07/07 11:16:11;;;;;;;3.15;1.90;;;;;;;25.59;46.03;101576.81;5030336;28;20128;-84
2021/07/07 11:18:39;;;;;;;6.28;1.98;;;;;;;25.89;44.92;101577.53;5028107;28;20052;-82
2021/07/07 11:21:07;;;;;;;7.40;2.33;;;;;;;25.66;44.57;101577.47;5032270;28;20104;-81
2021/07/07 11:28:17;;;;;;;;;;;;;;;;;;;;;
2021/07/07 11:31:35;;;;;;;4.88;1.90;;;;;;;22.78;52.47;101596.28;4886215;29;20032;-84
2021/07/07 11:41:23;;;;;;;3.58;1.90;;;;;;;24.95;46.43;101586.06;4976514;28;20043;-86
2021/07/07 11:43:54;;;;;;;5.10;2.00;;;;;;;25.91;44.70;101589.16;4986844;28;20048;-84
2021/07/07 11:47:19;;;;;;;;;;;;;;;;;;;;;
2021/07/07 11:50:34;;;;;;;7.50;1.98;;;;;;;25.40;44.14;101600.81;4980969;28;20034;-85
2021/07/07 11:53:23;;;;;;;2.38;1.83;;;;;;;25.40;44.65;101603.50;4983338;28;20058;-84
2021/07/07 11:56:30;;;;;;;5.45;1.95;;;;;;;25.53;44.61;101607.56;4988412;28;20038;-84
2021/07/07 11:59:22;;;;;;;3.20;1.85;;;;;;;24.92;47.53;101607.72;4985079;28;20042;-85
2021/07/07 12:06:14;;;;;;;8.23;2.33;;;;;;;24.69;47.46;101603.91;4974322;28;20412;-85
2021/07/07 12:09:51;;;;;;;7.10;2.78;;;;;;;24.63;48.59;101608.59;4977048;28;20038;-83
2021/07/07 12:12:28;;;;;;;5.63;2.10;;;;;;;24.29;49.45;101614.94;4988510;28;20034;-83
2021/07/07 12:18:27;;;;;;;3.13;2.05;;;;;;;24.85;46.53;101612.41;4984436;28;20047;-84
2021/07/07 12:21:51;;;;;;;;;;;;;;;;;;;;;
2021/07/07 12:24:51;;;;;;;5.47;2.72;;;;;;;24.16;47.40;101623.38;5048694;28;20064;-84
2021/07/07 12:27:43;;;;;;;4.03;2.10;;;;;;;23.68;48.68;101616.53;5049845;28;20087;-83
2021/07/07 12:30:27;;;;;;;4.80;2.35;;;;;;;23.16;50.55;101637.50;5039352;28;20534;-83
2021/07/07 12:33:16;;;;;;;4.15;2.40;;;;;;;22.51;52.33;101638.88;5041794;28;20506;-83
2021/07/07 12:36:04;;;;;;;5.63;2.38;;;;;;;22.48;54.53;101638.97;5037953;28;20078;-79
2021/07/07 12:39:05;;;;;;;4.68;2.50;;;;;;;23.79;52.63;101631.50;5048098;28;20036;-83
2021/07/07 12:41:44;;;;;;;4.00;2.33;;;;;;;24.05;48.66;101636.19;5052003;28;20120;-83
2021/07/07 12:44:18;;;;;;;9.98;2.83;;;;;;;23.84;52.32;101641.19;5049857;28;20056;-83
2021/07/07 12:47:07;;;;;;;8.50;2.80;;;;;;;23.73;49.04;101646.00;5050561;28;20049;-83
2021/07/07 12:50:09;;;;;;;5.78;2.80;;;;;;;24.01;50.07;101642.59;5049842;28;20033;-83
2021/07/07 12:52:46;;;;;;;5.43;2.63;;;;;;;25.37;48.03;101644.91;5047506;28;20018;-85
2021/07/07 12:55:16;;;;;;;5.40;2.92;;;;;;;26.06;45.95;101638.13;5045841;28;20045;-84
2021/07/07 12:58:15;;;;;;;6.10;2.67;;;;;;;26.70;42.44;101644.75;5054251;28;20028;-85
2021/07/07 13:00:46;;;;;;;5.70;2.65;;;;;;;26.98;47.62;101633.78;5048582;28;20036;-79
2021/07/07 13:03:12;;;;;;;9.50;2.80;;;;;;;27.83;41.67;101638.41;5048960;28;20037;-77
2021/07/07 13:05:40;;;;;;;6.43;2.13;;;;;;;28.23;40.31;101641.19;5050094;28;20048;-77
2021/07/07 13:08:11;;;;;;;4.38;1.90;;;;;;;29.26;39.55;101633.69;5049366;28;20025;-77
2021/07/07 13:10:52;;;;;;;3.58;2.17;;;;;;;28.85;38.88;101628.41;5044951;28;20047;-76
2021/07/07 13:13:18;;;;;;;8.23;2.47;;;;;;;26.87;41.53;101647.72;5050337;28;20032;-75
2021/07/07 13:16:02;;;;;;;7.05;2.83;;;;;;;26.14;43.48;101646.81;5048511;28;20025;-77
2021/07/07 13:18:28;;;;;;;8.70;2.75;;;;;;;25.66;43.80;101639.47;5046726;28;20032;-76
2021/07/07 13:21:16;;;;;;;7.75;2.35;;;;;;;25.06;45.64;101640.47;5047837;28;20025;-78
2021/07/07 13:24:20;;;;;;;7.35;2.63;;;;;;;26.13;44.62;101638.78;4948630;28;20047;-81
2021/07/07 13:27:22;;;;;;;7.05;2.60;;;;;;;26.02;44.74;101639.13;5047655;28;20475;-84
2021/07/07 13:29:52;;;;;;;7.15;2.20;;;;;;;25.47;44.01;101650.84;5043468;28;20056;-84
2021/07/07 13:32:27;;;;;;;5.15;2.40;;;;;;;24.65;46.90;101647.09;5044094;28;20082;-82
2021/07/07 13:35:09;;;;;;;4.93;2.30;;;;;;;25.38;45.91;101645.78;5041113;28;20041;-84
2021/07/07 13:38:21;;;;;;;5.25;2.53;;;;;;;26.28;43.84;101642.75;5032720;28;20036;-82
2021/07/07 13:40:48;;;;;;;4.65;1.92;;;;;;;26.55;43.00;101643.53;5040974;28;20044;-84
2021/07/07 13:43:44;;;;;;;7.70;1.90;;;;;;;28.05;40.52;101642.91;5050419;28;20037;-83
2021/07/07 13:46:56;;;;;;;5.88;2.15;;;;;;;27.58;42.56;101649.41;5045447;28;20048;-82
2021/07/07 13:49:22;;;;;;;4.78;2.20;;;;;;;27.90;42.80;101645.31;5050509;28;20037;-84
2021/07/07 13:52:14;;;;;;;5.75;2.08;;;;;;;28.34;38.65;101649.72;5050565;28;20462;-83
2021/07/07 13:54:59;;;;;;;6.13;2.40;;;;;;;28.31;40.26;101654.38;5048201;28;20045;-83
2021/07/07 13:57:42;;;;;;;5.88;2.03;;;;;;;27.92;39.65;101648.81;5051565;28;20057;-83
2021/07/07 14:00:11;;;;;;;4.68;1.70;;;;;;;27.17;41.84;101671.75;5047662;28;20041;-82
2021/07/07 14:02:36;;;;;;;6.50;2.28;;;;;;;26.74;42.83;101670.75;5049516;28;20102;-81
2021/07/07 14:05:17;;;;;;;5.82;2.30;;;;;;;26.85;43.98;101664.91;5050199;28;20021;-84
2021/07/07 14:07:44;;;;;;;3.58;1.75;;;;;;;27.32;42.42;101664.84;5046694;28;20434;-83
2021/07/07 14:10:10;;;;;;;6.07;2.10;;;;;;;27.29;41.85;101666.78;5048004;28;20108;-82
2021/07/07 14:12:36;;;;;;;4.60;2.00;;;;;;;26.37;42.63;101670.25;5046854;28;20538;-83
2021/07/07 14:15:26;;;;;;;4.82;2.20;;;;;;;25.60;45.31;101675.59;5050497;28;20029;-83
2021/07/07 14:17:55;;;;;;;8.38;2.72;;;;;;;24.66;46.52;101679.38;5046165;28;20039;-82
2021/07/07 14:20:25;;;;;;;4.88;2.42;;;;;;;24.08;48.35;101673.78;5042397;28;20047;-83
2021/07/07 14:23:10;;;;;;;8.02;2.47;;;;;;;23.67;49.48;101675.69;5048713;28;20095;-83
2021/07/07 14:25:36;;;;;;;3.60;2.30;;;;;;;23.30;50.85;101676.59;5048698;28;20484;-83
2021/07/07 14:28:02;;;;;;;5.05;2.60;;;;;;;23.03;51.60;101689.69;5049134;28;20037;-82
2021/07/07 14:30:32;;;;;;;8.00;2.58;;;;;;;22.86;52.65;101684.69;5042031;28;20383;-81
2021/07/07 14:32:57;;;;;;;9.63;3.03;;;;;;;22.42;53.78;101681.97;5049521;28;20041;-81
2021/07/07 14:35:43;;;;;;;3.35;1.95;;;;;;;22.51;53.07;101687.16;5050266;28;20378;-80
2021/07/07 14:38:09;;;;;;;9.63;2.50;;;;;;;22.49;53.13;101686.34;5055363;28;20029;-81
2021/07/07 14:40:34;;;;;;;4.20;2.28;;;;;;;23.19;51.59;101685.75;5053613;28;20502;-81
2021/07/07 14:43:00;;;;;;;4.50;2.05;;;;;;;23.94;50.84;101671.44;5049685;28;20021;-83
2021/07/07 14:45:50;;;;;;;4.88;2.40;;;;;;;24.24;47.70;101683.19;5048044;28;20574;-84
2021/07/07 14:48:21;;;;;;;5.70;2.17;;;;;;;24.45;47.34;101675.44;5044506;28;20376;-81
2021/07/07 14:50:47;;;;;;;4.50;2.15;;;;;;;24.71;46.55;101688.19;5048183;28;20098;-81
2021/07/07 14:53:13;;;;;;;6.65;2.60;;;;;;;24.79;48.51;101679.00;5045585;28;20143;-80
2021/07/07 14:55:41;;;;;;;2.55;2.20;;;;;;;24.77;47.49;101686.25;5046438;28;20036;-79
2021/07/07 14:58:06;;;;;;;3.42;2.00;;;;;;;24.80;45.84;101687.03;5028589;28;20427;-80
2021/07/07 15:00:34;;;;;;;3.75;1.92;;;;;;;24.73;48.47;101686.34;5045840;28;20052;-80
2021/07/07 15:03:00;;;;;;;6.70;2.42;;;;;;;24.78;45.73;101677.25;5046761;28;20059;-80
2021/07/07 15:05:26;;;;;;;3.88;1.92;;;;;;;24.92;46.65;101670.50;5044842;28;20017;-79
2021/07/07 15:08:18;;;;;;;6.65;2.13;;;;;;;24.73;47.22;101674.69;5046147;28;20463;-80
2021/07/07 15:10:44;;;;;;;4.63;1.90;;;;;;;25.01;47.12;101680.09;5046656;28;20372;-82
2021/07/07 15:13:32;;;;;;;4.43;2.20;;;;;;;24.75;45.83;101672.81;5045155;28;20024;-82
2021/07/07 15:15:59;;;;;;;9.50;2.42;;;;;;;24.71;46.71;101676.53;5044542;28;20037;-78
2021/07/07 15:18:24;;;;;;;4.85;1.80;;;;;;;24.66;46.44;101683.84;5047212;28;20074;-76
2021/07/07 15:20:49;;;;;;;4.95;2.13;;;;;;;24.49;46.28;101674.44;5045106;28;20033;-77
2021/07/07 15:23:15;;;;;;;4.50;2.05;;;;;;;24.25;47.28;101676.00;5046727;28;20047;-77
2021/07/07 15:25:40;;;;;;;5.38;2.50;;;;;;;23.97;46.63;101682.13;5047468;28;20078;-75
2021/07/07 15:28:06;;;;;;;4.95;2.05;;;;;;;23.76;47.05;101678.16;5046127;28;20689;-75
2021/07/07 15:30:31;;;;;;;3.65;2.38;;;;;;;23.71;48.19;101693.50;5050200;28;20028;-76
2021/07/07 15:32:57;;;;;;;5.93;2.05;;;;;;;23.73;48.38;101688.97;5051758;28;20025;-78
2021/07/07 15:35:22;;;;;;;7.13;1.92;;;;;;;23.70;47.45;101689.06;5051201;28;20471;-76
2021/07/07 15:37:51;;;;;;;7.22;2.05;;;;;;;23.67;48.37;101691.81;5050744;28;20024;-76
2021/07/07 15:40:16;;;;;;;6.40;2.38;;;;;;;23.57;49.31;101699.22;5047636;28;20495;-75
2021/07/07 15:42:42;;;;;;;3.72;2.10;;;;;;;23.57;48.38;101686.66;5050801;28;20048;-74
2021/07/07 15:45:08;;;;;;;5.90;2.47;;;;;;;23.57;48.50;101699.22;5048331;28;20039;-75
2021/07/07 15:47:34;;;;;;;3.53;1.80;;;;;;;23.64;50.01;101692.75;5041115;28;20326;-78
2021/07/07 15:49:59;;;;;;;10.15;2.35;;;;;;;23.71;48.62;101699.78;5049490;28;20363;-76
2021/07/07 15:52:25;;;;;;;5.43;1.83;;;;;;;23.43;48.91;101707.63;5049437;28;20044;-76
2021/07/07 15:54:50;;;;;;;5.82;1.98;;;;;;;23.21;48.02;101705.41;5048022;28;20404;-76
2021/07/07 15:57:16;;;;;;;3.10;1.90;;;;;;;23.14;47.63;101703.81;5042128;28;20025;-78
2021/07/07 15:59:41;;;;;;;5.45;2.47;;;;;;;22.76;47.97;101700.06;5050790;28;20505;-75
2021/07/07 16:02:07;;;;;;;6.07;1.80;;;;;;;22.72;48.86;101701.06;5038196;28;20558;-76
2021/07/07 16:04:32;;;;;;;4.88;1.90;;;;;;;22.76;49.76;101702.75;5020278;28;20442;-74
2021/07/07 16:06:58;;;;;;;5.53;1.95;;;;;;;22.85;50.45;101707.94;5033169;28;20120;-76
2021/07/07 16:09:23;;;;;;;5.15;2.33;;;;;;;22.76;50.17;101702.75;5030916;28;20083;-76
2021/07/07 16:11:50;;;;;;;6.88;2.38;;;;;;;22.65;51.86;101707.47;5029937;28;20036;-76
2021/07/07 16:14:15;;;;;;;9.18;2.70;;;;;;;22.54;50.83;101703.19;5026975;28;20030;-76
2021/07/07 16:16:41;;;;;;;8.73;2.17;;;;;;;22.59;53.28;101710.28;5029177;28;20471;-75
2021/07/07 16:19:06;;;;;;;5.63;2.13;;;;;;;22.54;52.27;101713.06;5027902;28;20480;-75
2021/07/07 16:21:32;;;;;;;5.63;2.17;;;;;;;22.55;52.58;101709.47;5028630;28;20022;-74
2021/07/07 16:23:58;;;;;;;9.43;2.53;;;;;;;22.54;53.50;101719.28;5028670;28;20546;-75
2021/07/07 16:26:24;;;;;;;4.85;2.05;;;;;;;22.62;52.05;101710.22;5029285;28;20043;-74
2021/07/07 16:28:49;;;;;;;5.97;2.20;;;;;;;22.67;53.03;101713.72;5029774;28;20672;-74
2021/07/07 16:31:17;;;;;;;8.13;2.25;;;;;;;22.74;52.53;101709.97;5028824;28;20234;-77
2021/07/07 16:33:42;;;;;;;4.50;1.77;;;;;;;22.75;53.05;101703.69;5030596;28;20052;-75
2021/07/07 16:36:08;;;;;;;9.27;2.47;;;;;;;22.77;51.27;101707.22;5028464;28;20067;-75
2021/07/07 16:38:33;;;;;;;6.82;2.08;;;;;;;22.99;51.24;101709.44;5027441;28;20037;-77
2021/07/07 16:40:59;;;;;;;7.10;2.08;;;;;;;23.09;51.38;101716.41;5028710;28;20033;-76
2021/07/07 16:43:24;;;;;;;9.82;2.30;;;;;;;23.09;52.07;101721.78;5031997;28;20021;-77
2021/07/07 16:45:50;;;;;;;8.98;2.42;;;;;;;23.13;50.63;101720.81;5011799;28;20034;-77
2021/07/07 16:48:16;;;;;;;5.60;2.22;;;;;;;23.00;50.04;101724.66;5025055;28;20029;-79
2021/07/07 16:50:41;;;;;;;9.80;2.67;;;;;;;22.82;50.38;101729.47;5024120;28;20476;-78
2021/07/07 16:53:08;;;;;;;7.22;2.22;;;;;;;22.67;51.71;101725.31;5027602;28;20045;-78
2021/07/07 16:55:35;;;;;;;9.60;3.03;;;;;;;22.70;51.33;101735.09;5027157;28;20042;-77
2021/07/07 16:58:01;;;;;;;10.32;2.40;;;;;;;22.56;51.04;101738.94;5024122;28;20036;-77
2021/07/07 17:00:26;;;;;;;12.15;2.30;;;;;;;22.75;51.46;101733.22;5027515;28;20018;-76
2021/07/07 17:02:52;;;;;;;8.38;2.33;;;;;;;22.62;52.21;101737.06;5038160;28;20416;-75
2021/07/07 17:05:17;;;;;;;5.38;1.98;;;;;;;22.65;51.20;101737.84;5045502;28;20057;-78
2021/07/07 17:07:42;;;;;;;5.93;2.10;;;;;;;22.52;50.30;101736.34;5050864;28;20454;-77
2021/07/07 17:10:10;;;;;;;5.72;2.22;;;;;;;22.29;51.39;101744.75;5049428;28;20387;-76
2021/07/07 17:12:36;;;;;;;8.32;2.50;;;;;;;22.00;53.58;101743.47;5049909;28;20442;-77
2021/07/07 17:15:01;;;;;;;6.40;2.30;;;;;;;21.91;52.72;101744.53;5030153;28;20030;-76
2021/07/07 17:17:27;;;;;;;8.18;2.78;;;;;;;21.77;52.32;101747.44;5049205;28;20024;-76
2021/07/07 17:19:55;;;;;;;12.38;2.65;;;;;;;21.62;52.27;101742.31;5052336;28;20394;-75
2021/07/07 17:22:20;;;;;;;11.20;2.25;;;;;;;21.58;51.57;101759.31;5051254;28;20186;-82
2021/07/07 17:24:46;;;;;;;6.45;2.33;;;;;;;21.37;52.56;101758.69;5044204;28;20553;-81
2021/07/07 17:27:14;;;;;;;6.38;2.47;;;;;;;21.30;52.51;101754.34;5052997;28;20408;-83
2021/07/07 17:29:39;;;;;;;5.65;2.00;;;;;;;21.16;53.36;101754.50;5047841;28;20483;-81
2021/07/07 17:32:05;;;;;;;8.40;2.38;;;;;;;21.12;53.19;101755.44;5034164;28;20035;-85
2021/07/07 17:34:31;;;;;;;8.10;2.60;;;;;;;21.07;54.20;101766.22;5049844;28;20045;-82
2021/07/07 17:36:57;;;;;;;8.10;2.47;;;;;;;20.98;54.21;101750.28;5049035;28;20025;-82
2021/07/07 17:39:23;;;;;;;6.90;2.30;;;;;;;21.00;54.04;101764.53;5052249;28;20029;-84
2021/07/07 17:41:48;;;;;;;12.57;2.95;;;;;;;20.91;54.36;101759.28;5050927;28;20079;-82
2021/07/07 17:44:15;;;;;;;6.40;2.38;;;;;;;20.83;53.61;101762.94;5051629;28;20037;-82
2021/07/07 17:46:40;;;;;;;9.30;2.28;;;;;;;20.77;53.97;101763.00;5048943;28;20487;-80
2021/07/07 17:49:06;;;;;;;7.05;2.28;;;;;;;20.79;54.24;101763.00;5043707;28;20079;-84
2021/07/07 17:51:31;;;;;;;5.22;1.77;;;;;;;20.75;54.78;101772.81;5047824;28;20091;-84
2021/07/07 17:53:57;;;;;;;7.38;2.35;;;;;;;20.72;54.54;101776.41;5047286;28;20355;-86
2021/07/07 17:56:26;;;;;;;4.57;2.20;;;;;;;20.65;55.31;101773.81;5040326;28;20025;-84
2021/07/07 17:58:52;;;;;;;10.57;2.20;;;;;;;20.60;54.83;101770.28;5049986;28;20108;-83